Beckwith, West Virginia
Current Conditions -  °F | °C
As of 3:51 PM on Saturday 25 Oct 2014 (Local Time) from KBKW Reporting Station
Overcast Overcast  
Wind Chill: 62°   Ceiling: 4100
Heat Index: 62°   Visibility: 10mi
Dew Point: 42°   Wind: 10mph
Humidity: 48%   Direction: 300°WNW
Pressure: 29.98"   Gusts: NA
Location:  38.0317°N, 81.0282°W
Report Text: KBKW 251951Z AUTO 30009KT 10SM BKN041 OVC060 17/06 A2998 RMK AO2 SLP152 T01670056 TSNO
Loading
Personal Weather Stations






























Interactive Weather Map
Tropical Storm Tracking
New forecast layout! Learn more

10-Day Weather Forecast

Advertisements
Track Severe Weather on mobile